Saturday, October 25, 2014
13:29 UTC
  |  Log In   |  Register Free
Airport Search:

Hobart Regional Airport
(KHBR)

Hobart Regional Airport Diagram
No Airport Diagram Available

FAA data valid effective September 18, 2014 - November 13, 2014 (unless otherwise noted).

 
 
 
 
 
 
 
 
 
 
 
 
 
 

Current Aviation Weather for Hobart Regional Airport (KHBR)

The most recent METAR observation for KHBR was updated at: 1312
METAR Summary (Translated METAR)
KHBR
251253Z AUTO 21009KT 9SM CLR 14/13 A3009 RMK AO2 SLP176 T01440128
KCSM
251253Z AUTO 21009KT 10SM CLR 16/13 A3010 RMK AO2 SLP176 T01610128
(22.2 nm NW from KHBR)
KAXS
251255Z AUTO 00000KT 10SM CLR 13/11 A3010 RMK AO2 T01340113
(22.5 nm SW from KHBR)
TAF Summary (Translated TAF)
KHBR
251120Z 2512/2612 19010KT P6SM SKC
KCSM
(22.2 nm NW from KHBR)
251120Z 2512/2612 20010KT P6SM SKC
  Airport Weather Conditions for KHBR

 Current Weather at HBR
58° F
Fair
Southwest winds at 10.4 mph
HBR NOAA Radar

Pressure: 30.09 in
Humidity: 90%
Wind: Southwest at 10.4 MPH (9 KT)
Dew Point: 55.0°F
Visibility: 9.00 mi


Airport Weather Forecast for KHBR

Translated METAR and TAF for KHBR
Translated METAR for KHBR (1324 UTC 25 October 2014)
found at http://aviationweather.gov/adds/metars/
 
METAR text: KHBR 251253Z AUTO 21009KT 9SM CLR 14/13 A3009 RMK AO2 SLP176 T01440128
Conditions at: KHBR (HOBART , OK, US) observed 1253 UTC 25 October 2014
Temperature: 14.4°C (58°F)
Dewpoint: 12.8°C (55°F) [RH = 90%]
Pressure (altimeter): 30.09 inches Hg (1019.0 mb)
[Sea-level pressure: 1017.6 mb]
Winds: from the SSW (210 degrees) at 10 MPH (9 knots; 4.7 m/s)
Visibility: 9 miles (14 km)
Ceiling: at least 12,000 feet AGL
Clouds: sky clear below 12,000 feet AGL
Weather: automated observation with no human augmentation;
there may or may not be significant weather present at this time
Translated TAF for KHBR
Forecast for: KHBR (HOBART , OK, US)
TAF Text: KHBR 251120Z 2512/2612 19010KT P6SM SKC
Forecast period: 1200 UTC 25 October 2014 to 1200 UTC 26 October 2014
Forecast type: FROM: standard forecast or significant change
Winds: from the S (190 degrees) at 12 MPH (10 knots; 5.2 m/s)
Visibility: 6 or more miles (10+ km)
Clouds: clear skies
Weather: no significant weather forecast for this period

Find All Airport Services Find A Hotel Find A Rental Car Find A Golf Course Find A Restaurant $100 Hamburger



FBO's on the Field
FBO Company Facility Photos Services Transportation Aviation Fuel Prices: Prices include tax
Catering Weather Repair Courtesy Rental Type 100LL JetA JetA+ MOGAS 8087
 
City of Hobart

Currently rated 2.8 by 1 person
FS: Phillips 66
Last Updated: Oct-14
Login to update fuel prices
SS:
Contact City of HobartMore FBO Information
 
Add another FBO Facility Photos Catering Weather Repair Courtesy Rental Type 100LL JetA JetA+ MOGAS 8087
Services Transportation Aviation Fuel Prices: Prices include tax


model-print
model-print
model-print
model-print